Time,TemperatureF,DewpointF,PressureIn,WindDirection,WindDirectionDegrees,WindSpeedMPH,WindSpeedGustMPH,Humidity,HourlyPrecipIn,Conditions,Clouds,dailyrainin,SoftwareType,DateUTC
2013-01-12 00:00:00,36.8,34.7,30.25,ESE,112,2.0,6.0,92,0.00,,,0.00,Weather View 32 v70,2013-01-12 05:00:00,
2013-01-12 00:01:00,37.0,34.9,30.25,SSE,148,2.0,6.0,92,0.00,,,0.00,Weather View 32 v70,2013-01-12 05:01:00,
2013-01-12 00:02:00,37.0,34.9,30.24,ESE,118,2.0,6.0,92,0.00,,,0.00,Weather View 32 v70,2013-01-12 05:02:00,
2013-01-12 00:07:00,37.2,35.1,30.25,ESE,122,2.0,5.0,92,0.00,,,0.00,Weather View 32 v70,2013-01-12 05:07:00,
2013-01-12 00:12:00,37.2,35.1,30.24,SE,124,2.0,5.0,92,0.00,,,0.00,Weather View 32 v70,2013-01-12 05:12:00,
2013-01-12 00:17:00,37.0,34.9,30.24,SE,125,3.0,3.0,92,0.00,,,0.00,Weather View 32 v70,2013-01-12 05:17:00,
2013-01-12 00:22:00,37.2,35.1,30.24,East,99,2.0,3.0,92,0.00,,,0.00,Weather View 32 v70,2013-01-12 05:22:00,
2013-01-12 00:27:00,36.8,34.7,30.23,SE,141,3.0,4.0,92,0.00,,,0.00,Weather View 32 v70,2013-01-12 05:27:00,
2013-01-12 00:32:00,37.0,34.9,30.23,South,171,3.0,5.0,92,0.00,,,0.00,Weather View 32 v70,2013-01-12 05:32:00,
2013-01-12 00:37:00,37.4,35.3,30.23,SE,128,4.0,5.0,92,0.00,,,0.00,Weather View 32 v70,2013-01-12 05:37:00,
2013-01-12 00:42:00,37.4,35.3,30.23,ESE,122,2.0,5.0,92,0.00,,,0.00,Weather View 32 v70,2013-01-12 05:42:00,
2013-01-12 00:47:00,37.4,35.3,30.23,SE,131,4.0,5.0,92,0.00,,,0.00,Weather View 32 v70,2013-01-12 05:47:00,
2013-01-12 00:52:00,37.5,35.4,30.24,East,91,2.0,5.0,92,0.00,,,0.00,Weather View 32 v70,2013-01-12 05:52:00,
2013-01-12 00:57:00,37.5,35.4,30.24,SSE,160,2.0,5.0,92,0.00,,,0.00,Weather View 32 v70,2013-01-12 05:57:00,
2013-01-12 01:02:00,37.7,35.6,30.24,ESE,122,2.0,5.0,92,0.00,,,0.00,Weather View 32 v70,2013-01-12 06:02:00,
2013-01-12 01:07:00,37.7,35.6,30.24,SSE,159,2.0,5.0,92,0.00,,,0.00,Weather View 32 v70,2013-01-12 06:07:00,
2013-01-12 01:12:00,37.9,35.8,30.24,ESE,103,3.0,5.0,92,0.00,,,0.00,Weather View 32 v70,2013-01-12 06:12:00,
2013-01-12 01:17:00,38.3,36.2,30.24,East,85,1.0,5.0,92,0.00,,,0.00,Weather View 32 v70,2013-01-12 06:17:00,
2013-01-12 01:22:00,38.1,36.0,30.24,East,93,2.0,5.0,92,0.00,,,0.00,Weather View 32 v70,2013-01-12 06:22:00,
2013-01-12 01:27:00,37.9,36.1,30.24,ENE,76,1.0,5.0,93,0.00,,,0.00,Weather View 32 v70,2013-01-12 06:27:00,
2013-01-12 01:32:00,37.4,35.3,30.24,ESE,104,2.0,5.0,92,0.00,,,0.00,Weather View 32 v70,2013-01-12 06:32:00,
2013-01-12 01:37:00,37.4,35.3,30.23,ENE,73,1.0,5.0,92,0.00,,,0.00,Weather View 32 v70,2013-01-12 06:37:00,
2013-01-12 01:42:00,37.2,35.1,30.24,East,81,1.0,5.0,92,0.00,,,0.00,Weather View 32 v70,2013-01-12 06:42:00,
2013-01-12 01:47:00,37.4,35.3,30.24,East,88,1.0,5.0,92,0.00,,,0.00,Weather View 32 v70,2013-01-12 06:47:00,
2013-01-12 01:52:00,37.4,35.3,30.24,ESE,106,2.0,4.0,92,0.00,,,0.00,Weather View 32 v70,2013-01-12 06:52:00,
2013-01-12 01:57:00,37.4,35.3,30.24,East,90,1.0,4.0,92,0.00,,,0.00,Weather View 32 v70,2013-01-12 06:57:00,
2013-01-12 02:02:00,37.4,35.6,30.23,ENE,77,1.0,4.0,93,0.00,,,0.00,Weather View 32 v70,2013-01-12 07:02:00,
2013-01-12 02:07:00,37.2,35.1,30.24,SE,139,0.0,4.0,92,0.00,,,0.00,Weather View 32 v70,2013-01-12 07:07:00,
2013-01-12 02:12:00,36.8,34.7,30.24,ENE,68,0.0,4.0,92,0.00,,,0.00,Weather View 32 v70,2013-01-12 07:12:00,
2013-01-12 02:17:00,37.0,34.9,30.23,SSE,151,0.0,4.0,92,0.00,,,0.00,Weather View 32 v70,2013-01-12 07:17:00,
2013-01-12 02:22:00,37.2,35.1,30.24,SSW,199,2.0,4.0,92,0.00,,,0.00,Weather View 32 v70,2013-01-12 07:22:00,
2013-01-12 02:27:00,37.4,35.3,30.25,SW,223,1.0,3.0,92,0.00,,,0.00,Weather View 32 v70,2013-01-12 07:27:00,
2013-01-12 02:32:00,37.4,35.6,30.27,WSW,253,0.0,3.0,93,0.00,,,0.00,Weather View 32 v70,2013-01-12 07:32:00,
2013-01-12 02:37:00,37.9,35.8,30.27,South,188,0.0,3.0,92,0.00,,,0.00,Weather View 32 v70,2013-01-12 07:37:00,
2013-01-12 02:42:00,37.9,35.8,30.26,South,173,0.0,3.0,92,0.00,,,0.00,Weather View 32 v70,2013-01-12 07:42:00,
2013-01-12 02:47:00,38.8,36.9,30.26,East,97,3.0,5.0,93,0.00,,,0.00,Weather View 32 v70,2013-01-12 07:47:00,
2013-01-12 02:52:00,37.7,35.9,30.26,SW,224,2.0,5.0,93,0.00,,,0.00,Weather View 32 v70,2013-01-12 07:52:00,
2013-01-12 02:57:00,37.2,35.4,30.26,SW,228,0.0,5.0,93,0.00,,,0.00,Weather View 32 v70,2013-01-12 07:57:00,
2013-01-12 03:02:00,37.4,35.3,30.24,ENE,68,1.0,5.0,92,0.00,,,0.00,Weather View 32 v70,2013-01-12 08:02:00,
2013-01-12 03:07:00,37.2,35.1,30.25,SSE,155,1.0,5.0,92,0.00,,,0.00,Weather View 32 v70,2013-01-12 08:07:00,
2013-01-12 03:12:00,37.4,35.3,30.25,East,82,2.0,5.0,92,0.00,,,0.00,Weather View 32 v70,2013-01-12 08:12:00,
2013-01-12 03:17:00,37.9,36.1,30.24,East,94,4.0,5.0,93,0.00,,,0.00,Weather View 32 v70,2013-01-12 08:17:00,
2013-01-12 03:22:00,39.0,36.9,30.24,SE,129,2.0,5.0,92,0.00,,,0.00,Weather View 32 v70,2013-01-12 08:22:00,
2013-01-12 03:27:00,39.0,36.9,30.25,SE,146,1.0,5.0,92,0.00,,,0.00,Weather View 32 v70,2013-01-12 08:27:00,
2013-01-12 03:32:00,38.6,36.7,30.24,SE,136,2.0,5.0,93,0.00,,,0.00,Weather View 32 v70,2013-01-12 08:32:00,
2013-01-12 03:37:00,38.8,36.7,30.25,South,190,1.0,5.0,92,0.00,,,0.00,Weather View 32 v70,2013-01-12 08:37:00,
2013-01-12 03:42:00,38.6,36.7,30.24,ENE,67,1.0,5.0,93,0.00,,,0.00,Weather View 32 v70,2013-01-12 08:42:00,
2013-01-12 03:47:00,38.4,36.6,30.24,SSE,161,2.0,5.0,93,0.00,,,0.00,Weather View 32 v70,2013-01-12 08:47:00,
2013-01-12 03:52:00,38.3,36.5,30.23,East,85,3.0,5.0,93,0.00,,,0.00,Weather View 32 v70,2013-01-12 08:52:00,
2013-01-12 03:57:00,38.6,36.7,30.23,East,83,2.0,5.0,93,0.00,,,0.00,Weather View 32 v70,2013-01-12 08:57:00,
2013-01-12 04:02:00,38.6,36.7,30.22,SSE,149,4.0,6.0,93,0.00,,,0.00,Weather View 32 v70,2013-01-12 09:02:00,
2013-01-12 04:07:00,38.8,36.9,30.22,SE,124,5.0,6.0,93,0.00,,,0.00,Weather View 32 v70,2013-01-12 09:07:00,
2013-01-12 04:12:00,39.2,37.3,30.21,South,181,2.0,6.0,93,0.00,,,0.00,Weather View 32 v70,2013-01-12 09:12:00,
2013-01-12 04:17:00,39.3,37.2,30.21,East,99,2.0,6.0,92,0.00,,,0.00,Weather View 32 v70,2013-01-12 09:17:00,
2013-01-12 04:22:00,39.2,37.1,30.21,South,173,5.0,6.0,92,0.00,,,0.00,Weather View 32 v70,2013-01-12 09:22:00,
2013-01-12 04:27:00,39.5,37.4,30.21,SSW,206,1.0,6.0,92,0.00,,,0.00,Weather View 32 v70,2013-01-12 09:27:00,
2013-01-12 04:32:00,39.2,37.1,30.21,SE,131,3.0,6.0,92,0.00,,,0.00,Weather View 32 v70,2013-01-12 09:32:00,
2013-01-12 04:37:00,39.3,37.2,30.21,SE,128,2.0,6.0,92,0.00,,,0.00,Weather View 32 v70,2013-01-12 09:37:00,
2013-01-12 04:42:00,39.2,37.1,30.21,SE,146,3.0,6.0,92,0.00,,,0.00,Weather View 32 v70,2013-01-12 09:42:00,
2013-01-12 04:47:00,39.5,37.4,30.21,East,95,2.0,6.0,92,0.00,,,0.00,Weather View 32 v70,2013-01-12 09:47:00,
2013-01-12 04:52:00,39.3,37.2,30.21,SE,139,2.0,6.0,92,0.00,,,0.00,Weather View 32 v70,2013-01-12 09:52:00,
2013-01-12 04:57:00,39.5,37.4,30.23,ESE,103,2.0,6.0,92,0.00,,,0.00,Weather View 32 v70,2013-01-12 09:57:00,
2013-01-12 05:02:00,39.5,37.4,30.24,SSW,206,1.0,6.0,92,0.00,,,0.00,Weather View 32 v70,2013-01-12 10:02:00,
2013-01-12 05:07:00,39.2,37.1,30.23,East,85,3.0,6.0,92,0.00,,,0.00,Weather View 32 v70,2013-01-12 10:07:00,
2013-01-12 05:12:00,39.7,37.6,30.23,ESE,116,3.0,6.0,92,0.00,,,0.00,Weather View 32 v70,2013-01-12 10:12:00,
2013-01-12 05:17:00,39.9,37.8,30.24,ESE,121,3.0,6.0,92,0.00,,,0.00,Weather View 32 v70,2013-01-12 10:17:00,
2013-01-12 05:22:00,39.3,37.2,30.23,SSW,210,2.0,6.0,92,0.00,,,0.00,Weather View 32 v70,2013-01-12 10:22:00,
2013-01-12 05:27:00,38.8,36.7,30.24,WSW,254,2.0,6.0,92,0.00,,,0.00,Weather View 32 v70,2013-01-12 10:27:00,
2013-01-12 05:32:00,38.4,36.3,30.24,NNW,336,1.0,6.0,92,0.00,,,0.00,Weather View 32 v70,2013-01-12 10:32:00,
2013-01-12 05:37:00,37.5,35.4,30.24,North,3,1.0,6.0,92,0.00,,,0.00,Weather View 32 v70,2013-01-12 10:37:00,
2013-01-12 05:42:00,37.5,35.1,30.25,WSW,240,2.0,6.0,91,0.00,,,0.00,Weather View 32 v70,2013-01-12 10:42:00,
2013-01-12 05:47:00,37.2,34.8,30.24,SW,219,2.0,5.0,91,0.00,,,0.00,Weather View 32 v70,2013-01-12 10:47:00,
2013-01-12 05:52:00,37.0,34.6,30.24,West,266,0.0,5.0,91,0.00,,,0.00,Weather View 32 v70,2013-01-12 10:52:00,
2013-01-12 05:57:00,36.8,34.7,30.24,South,171,1.0,4.0,92,0.00,,,0.00,Weather View 32 v70,2013-01-12 10:57:00,
2013-01-12 06:02:00,37.0,34.9,30.24,SW,226,1.0,4.0,92,0.00,,,0.00,Weather View 32 v70,2013-01-12 11:02:00,
2013-01-12 06:07:00,37.0,34.9,30.24,SSW,208,0.0,4.0,92,0.00,,,0.00,Weather View 32 v70,2013-01-12 11:07:00,
2013-01-12 06:12:00,36.8,34.7,30.24,SE,140,1.0,4.0,92,0.00,,,0.00,Weather View 32 v70,2013-01-12 11:12:00,
2013-01-12 06:17:00,36.8,34.7,30.24,West,263,0.0,4.0,92,0.00,,,0.00,Weather View 32 v70,2013-01-12 11:17:00,
2013-01-12 06:22:00,36.8,34.7,30.25,WNW,288,0.0,3.0,92,0.00,,,0.00,Weather View 32 v70,2013-01-12 11:22:00,
2013-01-12 06:27:00,36.6,34.5,30.26,ESE,104,1.0,3.0,92,0.00,,,0.00,Weather View 32 v70,2013-01-12 11:27:00,
2013-01-12 06:32:00,36.6,34.5,30.26,WSW,255,0.0,3.0,92,0.00,,,0.00,Weather View 32 v70,2013-01-12 11:32:00,
2013-01-12 06:37:00,36.5,34.4,30.25,SE,143,1.0,3.0,92,0.00,,,0.00,Weather View 32 v70,2013-01-12 11:37:00,
2013-01-12 06:42:00,36.6,34.5,30.24,East,81,1.0,4.0,92,0.00,,,0.00,Weather View 32 v70,2013-01-12 11:42:00,
2013-01-12 06:47:00,36.8,34.7,30.24,East,86,0.0,4.0,92,0.00,,,0.00,Weather View 32 v70,2013-01-12 11:47:00,
2013-01-12 06:52:00,36.5,34.4,30.25,ESE,113,2.0,4.0,92,0.00,,,0.00,Weather View 32 v70,2013-01-12 11:52:00,
2013-01-12 06:57:00,36.8,34.7,30.26,East,92,1.0,4.0,92,0.00,,,0.00,Weather View 32 v70,2013-01-12 11:57:00,
2013-01-12 07:02:00,37.2,35.1,30.26,SE,129,3.0,4.0,92,0.00,,,0.00,Weather View 32 v70,2013-01-12 12:02:00,
2013-01-12 07:07:00,37.2,35.1,30.26,ENE,76,2.0,4.0,92,0.00,,,0.00,Weather View 32 v70,2013-01-12 12:07:00,
2013-01-12 07:12:00,37.2,35.1,30.27,ESE,123,1.0,4.0,92,0.00,,,0.00,Weather View 32 v70,2013-01-12 12:12:00,
2013-01-12 07:17:00,37.0,35.2,30.27,NE,37,0.0,4.0,93,0.00,,,0.00,Weather View 32 v70,2013-01-12 12:17:00,
2013-01-12 07:23:00,36.8,35.0,30.27,West,260,1.0,4.0,93,0.00,,,0.00,Weather View 32 v70,2013-01-12 12:23:00,
2013-01-12 07:28:00,36.6,34.8,30.27,ESE,109,2.0,4.0,93,0.00,,,0.00,Weather View 32 v70,2013-01-12 12:28:00,
2013-01-12 07:33:00,36.6,34.8,30.27,West,266,0.0,4.0,93,0.00,,,0.00,Weather View 32 v70,2013-01-12 12:33:00,
2013-01-12 07:38:00,36.6,34.8,30.28,WNW,292,1.0,4.0,93,0.00,,,0.00,Weather View 32 v70,2013-01-12 12:38:00,
2013-01-12 07:43:00,36.8,35.0,30.28,SSE,150,0.0,3.0,93,0.00,,,0.00,Weather View 32 v70,2013-01-12 12:43:00,
2013-01-12 07:48:00,36.6,34.5,30.28,NW,310,0.0,3.0,92,0.00,,,0.00,Weather View 32 v70,2013-01-12 12:48:00,
2013-01-12 07:53:00,36.6,34.8,30.28,WSW,251,1.0,3.0,93,0.00,,,0.00,Weather View 32 v70,2013-01-12 12:53:00,
2013-01-12 07:58:00,36.6,34.8,30.28,SW,236,1.0,3.0,93,0.00,,,0.00,Weather View 32 v70,2013-01-12 12:58:00,
2013-01-12 08:03:00,36.5,34.7,30.28,NE,43,0.0,3.0,93,0.00,,,0.00,Weather View 32 v70,2013-01-12 13:03:00,
2013-01-12 08:08:00,36.6,34.8,30.29,West,274,1.0,2.0,93,0.00,,,0.00,Weather View 32 v70,2013-01-12 13:08:00,
2013-01-12 08:13:00,36.5,34.4,30.29,SW,219,1.0,2.0,92,0.00,,,0.00,Weather View 32 v70,2013-01-12 13:13:00,
2013-01-12 08:18:00,36.5,34.7,30.28,WNW,289,0.0,2.0,93,0.00,,,0.00,Weather View 32 v70,2013-01-12 13:18:00,
2013-01-12 08:23:00,36.6,34.8,30.28,SW,226,1.0,2.0,93,0.00,,,0.00,Weather View 32 v70,2013-01-12 13:23:00,
2013-01-12 08:28:00,36.6,34.8,30.28,SE,140,1.0,2.0,93,0.00,,,0.00,Weather View 32 v70,2013-01-12 13:28:00,
2013-01-12 08:33:00,36.6,34.8,30.28,East,93,0.0,2.0,93,0.00,,,0.00,Weather View 32 v70,2013-01-12 13:33:00,
2013-01-12 08:38:00,36.8,35.0,30.27,West,278,0.0,2.0,93,0.00,,,0.00,Weather View 32 v70,2013-01-12 13:38:00,
2013-01-12 08:43:00,36.8,34.7,30.28,WNW,300,1.0,2.0,92,0.00,,,0.00,Weather View 32 v70,2013-01-12 13:43:00,
2013-01-12 08:48:00,36.6,34.8,30.28,SSE,160,0.0,2.0,93,0.00,,,0.00,Weather View 32 v70,2013-01-12 13:48:00,
2013-01-12 08:53:00,36.8,35.0,30.28,SSW,192,0.0,2.0,93,0.00,,,0.00,Weather View 32 v70,2013-01-12 13:53:00,
2013-01-12 08:58:00,36.8,35.0,30.27,ESE,114,1.0,1.0,93,0.00,,,0.00,Weather View 32 v70,2013-01-12 13:58:00,
2013-01-12 09:03:00,37.0,35.2,30.27,North,355,0.0,1.0,93,0.00,,,0.00,Weather View 32 v70,2013-01-12 14:03:00,
2013-01-12 09:08:00,37.0,35.2,30.27,NE,49,0.0,1.0,93,0.00,,,0.00,Weather View 32 v70,2013-01-12 14:08:00,
2013-01-12 09:13:00,37.2,35.4,30.27,SE,134,2.0,2.0,93,0.00,,,0.00,Weather View 32 v70,2013-01-12 14:13:00,
2013-01-12 09:18:00,37.5,35.7,30.26,ESE,109,2.0,2.0,93,0.00,,,0.00,Weather View 32 v70,2013-01-12 14:18:00,
2013-01-12 09:23:00,37.7,35.9,30.26,ESE,116,2.0,2.0,93,0.00,,,0.00,Weather View 32 v70,2013-01-12 14:23:00,
2013-01-12 09:28:00,38.4,36.3,30.26,SE,137,2.0,4.0,92,0.00,,,0.00,Weather View 32 v70,2013-01-12 14:28:00,
2013-01-12 09:33:00,39.0,36.9,30.26,East,88,2.0,4.0,92,0.00,,,0.00,Weather View 32 v70,2013-01-12 14:33:00,
2013-01-12 09:38:00,39.5,37.6,30.25,East,100,2.0,4.0,93,0.00,,,0.00,Weather View 32 v70,2013-01-12 14:38:00,
2013-01-12 09:43:00,39.7,37.6,30.26,East,100,2.0,4.0,92,0.00,,,0.00,Weather View 32 v70,2013-01-12 14:43:00,
2013-01-12 09:48:00,39.7,37.6,30.25,ESE,103,2.0,4.0,92,0.00,,,0.00,Weather View 32 v70,2013-01-12 14:48:00,
2013-01-12 09:53:00,40.6,38.5,30.26,East,92,2.0,4.0,92,0.00,,,0.00,Weather View 32 v70,2013-01-12 14:53:00,
2013-01-12 09:58:00,41.0,38.9,30.25,ENE,78,3.0,4.0,92,0.00,,,0.00,Weather View 32 v70,2013-01-12 14:58:00,
2013-01-12 10:03:00,41.3,39.1,30.24,East,95,4.0,5.0,92,0.00,,,0.00,Weather View 32 v70,2013-01-12 15:03:00,
2013-01-12 10:08:00,41.5,39.6,30.23,SE,138,4.0,5.0,93,0.00,,,0.00,Weather View 32 v70,2013-01-12 15:08:00,
2013-01-12 10:13:00,41.7,39.5,30.23,East,84,2.0,6.0,92,0.00,,,0.00,Weather View 32 v70,2013-01-12 15:13:00,
2013-01-12 10:18:00,42.0,39.8,30.23,ESE,123,4.0,6.0,92,0.00,,,0.00,Weather View 32 v70,2013-01-12 15:18:00,
2013-01-12 10:23:00,42.0,39.8,30.25,ESE,114,3.0,6.0,92,0.00,,,0.00,Weather View 32 v70,2013-01-12 15:23:00,
2013-01-12 10:28:00,42.2,40.0,30.25,ESE,113,2.0,6.0,92,0.00,,,0.00,Weather View 32 v70,2013-01-12 15:28:00,
2013-01-12 10:33:00,42.2,40.0,30.23,SE,131,3.0,6.0,92,0.00,,,0.00,Weather View 32 v70,2013-01-12 15:33:00,
2013-01-12 10:38:00,42.2,40.0,30.22,SE,125,3.0,6.0,92,0.00,,,0.00,Weather View 32 v70,2013-01-12 15:38:00,
2013-01-12 10:43:00,42.2,39.8,30.22,SE,134,2.0,6.0,91,0.00,,,0.00,Weather View 32 v70,2013-01-12 15:43:00,
2013-01-12 10:48:00,42.2,39.5,30.22,SE,130,4.0,6.0,90,0.00,,,0.00,Weather View 32 v70,2013-01-12 15:48:00,
2013-01-12 10:53:00,42.6,39.9,30.22,SSE,155,4.0,6.0,90,0.00,,,0.00,Weather View 32 v70,2013-01-12 15:53:00,
2013-01-12 10:58:00,42.9,40.2,30.22,SSE,166,3.0,7.0,90,0.00,,,0.00,Weather View 32 v70,2013-01-12 15:58:00,
2013-01-12 11:03:00,43.5,40.8,30.22,SE,146,1.0,7.0,90,0.00,,,0.00,Weather View 32 v70,2013-01-12 16:03:00,
2013-01-12 11:08:00,43.7,41.0,30.21,SSE,154,6.0,7.0,90,0.00,,,0.00,Weather View 32 v70,2013-01-12 16:08:00,
2013-01-12 11:13:00,43.8,40.8,30.20,SE,134,5.0,8.0,89,0.00,,,0.00,Weather View 32 v70,2013-01-12 16:13:00,
2013-01-12 11:18:00,43.8,40.5,30.20,ESE,112,3.0,10.0,88,0.00,,,0.00,Weather View 32 v70,2013-01-12 16:18:00,
2013-01-12 11:23:00,44.4,41.1,30.20,SE,133,3.0,10.0,88,0.00,,,0.00,Weather View 32 v70,2013-01-12 16:23:00,
2013-01-12 11:28:00,44.7,41.4,30.20,SE,127,3.0,10.0,88,0.00,,,0.00,Weather View 32 v70,2013-01-12 16:28:00,
2013-01-12 11:33:00,44.7,41.1,30.20,East,94,6.0,10.0,87,0.00,,,0.00,Weather View 32 v70,2013-01-12 16:33:00,
2013-01-12 11:38:00,44.6,41.0,30.19,ESE,121,7.0,10.0,87,0.00,,,0.00,Weather View 32 v70,2013-01-12 16:38:00,
2013-01-12 11:43:00,44.9,41.0,30.19,SE,130,4.0,10.0,86,0.00,,,0.00,Weather View 32 v70,2013-01-12 16:43:00,
2013-01-12 11:48:00,44.6,40.7,30.19,SE,131,6.0,10.0,86,0.00,,,0.00,Weather View 32 v70,2013-01-12 16:48:00,
2013-01-12 11:53:00,44.6,40.7,30.19,SSE,151,6.0,10.0,86,0.00,,,0.00,Weather View 32 v70,2013-01-12 16:53:00,
2013-01-12 11:58:00,44.9,41.0,30.20,ESE,123,5.0,10.0,86,0.00,,,0.00,Weather View 32 v70,2013-01-12 16:58:00,
2013-01-12 12:03:00,44.7,40.5,30.19,SE,130,3.0,10.0,85,0.00,,,0.00,Weather View 32 v70,2013-01-12 17:03:00,
2013-01-12 12:08:00,44.9,40.7,30.19,ESE,108,4.0,10.0,85,0.00,,,0.00,Weather View 32 v70,2013-01-12 17:08:00,
2013-01-12 12:13:00,44.7,40.5,30.19,SE,125,4.0,10.0,85,0.00,,,0.00,Weather View 32 v70,2013-01-12 17:13:00,
2013-01-12 12:18:00,44.9,40.7,30.19,SE,137,5.0,9.0,85,0.00,,,0.00,Weather View 32 v70,2013-01-12 17:18:00,
2013-01-12 12:23:00,44.9,40.7,30.19,SE,127,6.0,9.0,85,0.00,,,0.00,Weather View 32 v70,2013-01-12 17:23:00,
2013-01-12 12:28:00,44.7,40.5,30.19,SE,126,5.0,11.0,85,0.00,,,0.00,Weather View 32 v70,2013-01-12 17:28:00,
2013-01-12 12:33:00,45.3,41.0,30.19,South,172,5.0,11.0,85,0.00,,,0.00,Weather View 32 v70,2013-01-12 17:33:00,
2013-01-12 12:38:00,45.3,40.7,30.19,ESE,109,6.0,11.0,84,0.00,,,0.00,Weather View 32 v70,2013-01-12 17:38:00,
2013-01-12 12:43:00,45.8,41.2,30.19,ESE,106,5.0,11.0,84,0.00,,,0.00,Weather View 32 v70,2013-01-12 17:43:00,
2013-01-12 12:48:00,46.4,41.8,30.18,SSE,151,6.0,11.0,84,0.00,,,0.00,Weather View 32 v70,2013-01-12 17:48:00,
2013-01-12 12:53:00,46.2,41.6,30.18,SSE,165,2.0,12.0,84,0.00,,,0.00,Weather View 32 v70,2013-01-12 17:53:00,
2013-01-12 12:58:00,46.0,41.4,30.19,SSE,166,4.0,12.0,84,0.00,,,0.00,Weather View 32 v70,2013-01-12 17:58:00,
2013-01-12 13:03:00,45.6,41.0,30.19,ESE,122,4.0,12.0,84,0.00,,,0.00,Weather View 32 v70,2013-01-12 18:03:00,
2013-01-12 13:08:00,45.6,41.0,30.18,SE,129,6.0,12.0,84,0.00,,,0.00,Weather View 32 v70,2013-01-12 18:08:00,
2013-01-12 13:13:00,46.0,41.4,30.18,ESE,106,5.0,12.0,84,0.00,,,0.00,Weather View 32 v70,2013-01-12 18:13:00,
2013-01-12 13:18:00,46.0,41.4,30.18,SSW,193,2.0,12.0,84,0.00,,,0.00,Weather View 32 v70,2013-01-12 18:18:00,
2013-01-12 13:23:00,45.8,41.2,30.18,SE,139,5.0,12.0,84,0.00,,,0.00,Weather View 32 v70,2013-01-12 18:23:00,
2013-01-12 13:28:00,44.7,39.8,30.19,ESE,111,2.0,12.0,83,0.00,,,0.00,Weather View 32 v70,2013-01-12 18:28:00,
2013-01-12 13:33:00,44.6,40.1,30.19,SE,132,4.0,12.0,84,0.00,,,0.00,Weather View 32 v70,2013-01-12 18:33:00,
2013-01-12 13:38:00,44.4,40.2,30.20,ESE,102,3.0,12.0,85,0.00,,,0.00,Weather View 32 v70,2013-01-12 18:38:00,
2013-01-12 13:43:00,44.2,40.3,30.19,SE,134,4.0,12.0,86,0.00,,,0.00,Weather View 32 v70,2013-01-12 18:43:00,
2013-01-12 13:48:00,44.2,40.3,30.19,SE,138,2.0,12.0,86,0.00,,,0.00,Weather View 32 v70,2013-01-12 18:48:00,
2013-01-12 13:53:00,44.0,40.1,30.21,South,176,2.0,12.0,86,0.00,,,0.00,Weather View 32 v70,2013-01-12 18:53:00,
2013-01-12 13:58:00,44.2,40.3,30.20,SE,129,1.0,12.0,86,0.00,,,0.00,Weather View 32 v70,2013-01-12 18:58:00,
2013-01-12 14:03:00,44.6,40.7,30.20,SE,146,3.0,12.0,86,0.00,,,0.00,Weather View 32 v70,2013-01-12 19:03:00,
2013-01-12 14:08:00,44.6,40.4,30.20,South,191,4.0,11.0,85,0.00,,,0.00,Weather View 32 v70,2013-01-12 19:08:00,
2013-01-12 14:13:00,44.7,40.2,30.20,SE,129,4.0,11.0,84,0.00,,,0.00,Weather View 32 v70,2013-01-12 19:13:00,
2013-01-12 14:18:00,44.4,40.2,30.20,SSE,149,3.0,12.0,85,0.00,,,0.00,Weather View 32 v70,2013-01-12 19:18:00,
2013-01-12 14:23:00,44.4,40.5,30.21,SSW,206,3.0,12.0,86,0.00,,,0.00,Weather View 32 v70,2013-01-12 19:23:00,
2013-01-12 14:28:00,44.2,40.3,30.21,NNE,30,1.0,12.0,86,0.00,,,0.00,Weather View 32 v70,2013-01-12 19:28:00,
2013-01-12 14:33:00,44.0,40.4,30.20,SE,138,5.0,12.0,87,0.00,,,0.00,Weather View 32 v70,2013-01-12 19:33:00,
2013-01-12 14:38:00,43.8,40.2,30.20,SE,124,3.0,12.0,87,0.00,,,0.00,Weather View 32 v70,2013-01-12 19:38:00,
2013-01-12 14:43:00,44.0,40.4,30.20,SSE,158,6.0,12.0,87,0.00,,,0.00,Weather View 32 v70,2013-01-12 19:43:00,
2013-01-12 14:48:00,43.8,40.5,30.21,SE,128,3.0,12.0,88,0.00,,,0.00,Weather View 32 v70,2013-01-12 19:48:00,
2013-01-12 14:53:00,44.0,40.7,30.21,SE,131,5.0,12.0,88,0.00,,,0.00,Weather View 32 v70,2013-01-12 19:53:00,
2013-01-12 14:58:00,43.8,40.5,30.20,SE,136,3.0,12.0,88,0.00,,,0.00,Weather View 32 v70,2013-01-12 19:58:00,
2013-01-12 15:03:00,43.7,40.4,30.20,SSE,159,4.0,12.0,88,0.00,,,0.00,Weather View 32 v70,2013-01-12 20:03:00,
2013-01-12 15:08:00,44.0,41.0,30.20,South,175,3.0,13.0,89,0.00,,,0.00,Weather View 32 v70,2013-01-12 20:08:00,
2013-01-12 15:13:00,43.8,40.8,30.20,SE,136,6.0,13.0,89,0.00,,,0.00,Weather View 32 v70,2013-01-12 20:13:00,
2013-01-12 15:18:00,43.7,40.7,30.20,SE,146,3.0,13.0,89,0.00,,,0.00,Weather View 32 v70,2013-01-12 20:18:00,
2013-01-12 15:23:00,43.7,40.7,30.20,South,187,6.0,13.0,89,0.00,,,0.00,Weather View 32 v70,2013-01-12 20:23:00,
2013-01-12 15:28:00,43.5,40.5,30.20,East,84,3.0,13.0,89,0.00,,,0.00,Weather View 32 v70,2013-01-12 20:28:00,
2013-01-12 15:33:00,43.5,40.5,30.19,ESE,110,2.0,13.0,89,0.00,,,0.00,Weather View 32 v70,2013-01-12 20:33:00,
2013-01-12 15:38:00,43.5,40.5,30.20,SE,139,5.0,13.0,89,0.00,,,0.00,Weather View 32 v70,2013-01-12 20:38:00,
2013-01-12 15:43:00,43.3,40.3,30.20,East,95,2.0,13.0,89,0.00,,,0.00,Weather View 32 v70,2013-01-12 20:43:00,
2013-01-12 15:48:00,43.3,40.6,30.20,ESE,120,6.0,13.0,90,0.00,,,0.00,Weather View 32 v70,2013-01-12 20:48:00,
2013-01-12 15:53:00,43.1,40.4,30.21,SSW,194,3.0,13.0,90,0.00,,,0.00,Weather View 32 v70,2013-01-12 20:53:00,
2013-01-12 15:58:00,42.9,40.2,30.21,SE,128,5.0,13.0,90,0.00,,,0.00,Weather View 32 v70,2013-01-12 20:58:00,
2013-01-12 16:03:00,42.9,40.2,30.22,SSE,150,3.0,13.0,90,0.00,,,0.00,Weather View 32 v70,2013-01-12 21:03:00,
2013-01-12 16:08:00,43.1,40.4,30.22,SSE,150,2.0,11.0,90,0.00,,,0.00,Weather View 32 v70,2013-01-12 21:08:00,
2013-01-12 16:13:00,42.9,40.2,30.22,SE,126,5.0,11.0,90,0.00,,,0.00,Weather View 32 v70,2013-01-12 21:13:00,
2013-01-12 16:18:00,42.8,40.1,30.22,SE,142,3.0,11.0,90,0.00,,,0.00,Weather View 32 v70,2013-01-12 21:18:00,
2013-01-12 16:23:00,42.6,39.9,30.21,SSE,149,3.0,11.0,90,0.00,,,0.00,Weather View 32 v70,2013-01-12 21:23:00,
2013-01-12 16:28:00,42.6,39.9,30.22,ESE,113,2.0,10.0,90,0.00,,,0.00,Weather View 32 v70,2013-01-12 21:28:00,
2013-01-12 16:33:00,42.6,39.9,30.22,ESE,116,3.0,10.0,90,0.00,,,0.00,Weather View 32 v70,2013-01-12 21:33:00,
2013-01-12 16:38:00,42.4,40.0,30.22,SE,126,2.0,10.0,91,0.00,,,0.00,Weather View 32 v70,2013-01-12 21:38:00,
2013-01-12 16:43:00,42.4,40.0,30.22,South,173,3.0,10.0,91,0.00,,,0.00,Weather View 32 v70,2013-01-12 21:43:00,
2013-01-12 16:48:00,42.4,40.0,30.22,SE,126,6.0,10.0,91,0.00,,,0.00,Weather View 32 v70,2013-01-12 21:48:00,
2013-01-12 16:53:00,42.2,40.0,30.23,ESE,119,2.0,10.0,92,0.00,,,0.00,Weather View 32 v70,2013-01-12 21:53:00,
2013-01-12 16:58:00,42.2,40.0,30.22,SSE,158,3.0,10.0,92,0.00,,,0.00,Weather View 32 v70,2013-01-12 21:58:00,
2013-01-12 17:03:00,42.2,40.0,30.23,ESE,115,2.0,7.0,92,0.00,,,0.00,Weather View 32 v70,2013-01-12 22:03:00,
2013-01-12 17:08:00,42.0,39.8,30.22,SSE,148,5.0,7.0,92,0.00,,,0.00,Weather View 32 v70,2013-01-12 22:08:00,
2013-01-12 17:13:00,42.2,40.0,30.21,SSW,195,3.0,7.0,92,0.00,,,0.00,Weather View 32 v70,2013-01-12 22:13:00,
2013-01-12 17:18:00,42.2,40.0,30.22,SSE,148,3.0,6.0,92,0.00,,,0.00,Weather View 32 v70,2013-01-12 22:18:00,
2013-01-12 17:23:00,42.0,39.8,30.22,ESE,121,5.0,6.0,92,0.00,,,0.00,Weather View 32 v70,2013-01-12 22:23:00,
2013-01-12 17:28:00,42.2,40.0,30.21,ESE,116,2.0,6.0,92,0.00,,,0.00,Weather View 32 v70,2013-01-12 22:28:00,
2013-01-12 17:33:00,42.0,39.8,30.20,SE,124,6.0,6.0,92,0.00,,,0.00,Weather View 32 v70,2013-01-12 22:33:00,
2013-01-12 17:38:00,42.2,40.0,30.22,SSE,149,3.0,6.0,92,0.00,,,0.00,Weather View 32 v70,2013-01-12 22:38:00,
2013-01-12 17:43:00,42.0,39.8,30.22,SE,145,3.0,6.0,92,0.00,,,0.00,Weather View 32 v70,2013-01-12 22:43:00,
2013-01-12 17:48:00,42.0,39.8,30.21,ESE,118,3.0,6.0,92,0.00,,,0.00,Weather View 32 v70,2013-01-12 22:48:00,
2013-01-12 17:53:00,42.2,40.0,30.22,SE,129,3.0,6.0,92,0.00,,,0.00,Weather View 32 v70,2013-01-12 22:53:00,
2013-01-12 17:58:00,42.0,39.8,30.21,ESE,112,3.0,9.0,92,0.00,,,0.00,Weather View 32 v70,2013-01-12 22:58:00,
2013-01-12 18:03:00,42.2,40.0,30.22,SE,142,3.0,9.0,92,0.00,,,0.00,Weather View 32 v70,2013-01-12 23:03:00,
2013-01-12 18:08:00,42.0,39.8,30.22,South,170,3.0,9.0,92,0.00,,,0.00,Weather View 32 v70,2013-01-12 23:08:00,
2013-01-12 18:13:00,42.0,39.8,30.22,SSE,163,2.0,9.0,92,0.00,,,0.00,Weather View 32 v70,2013-01-12 23:13:00,
2013-01-12 18:18:00,42.0,39.8,30.22,SSE,163,2.0,9.0,92,0.00,,,0.00,Weather View 32 v70,2013-01-12 23:18:00,
2013-01-12 18:23:00,42.2,40.0,30.22,SE,140,0.0,9.0,92,0.00,,,0.00,Weather View 32 v70,2013-01-12 23:23:00,
2013-01-12 18:28:00,42.0,39.8,30.22,SE,128,3.0,9.0,92,0.00,,,0.00,Weather View 32 v70,2013-01-12 23:28:00,
2013-01-12 18:33:00,41.7,39.5,30.22,SE,138,4.0,9.0,92,0.00,,,0.00,Weather View 32 v70,2013-01-12 23:33:00,
2013-01-12 18:38:00,41.7,39.5,30.22,SSE,155,2.0,9.0,92,0.00,,,0.00,Weather View 32 v70,2013-01-12 23:38:00,
2013-01-12 18:43:00,41.7,39.5,30.22,SSE,163,1.0,9.0,92,0.00,,,0.00,Weather View 32 v70,2013-01-12 23:43:00,
2013-01-12 18:48:00,41.1,39.0,30.22,ESE,114,2.0,9.0,92,0.00,,,0.00,Weather View 32 v70,2013-01-12 23:48:00,
2013-01-12 18:53:00,41.0,38.9,30.22,SE,137,2.0,9.0,92,0.00,,,0.00,Weather View 32 v70,2013-01-12 23:53:00,
2013-01-12 18:58:00,41.1,39.0,30.22,SE,135,3.0,8.0,92,0.00,,,0.00,Weather View 32 v70,2013-01-12 23:58:00,
2013-01-12 19:03:00,41.1,39.0,30.22,SE,140,2.0,8.0,92,0.00,,,0.00,Weather View 32 v70,2013-01-13 00:03:00,
2013-01-12 19:08:00,41.3,39.1,30.22,NNE,29,1.0,8.0,92,0.00,,,0.00,Weather View 32 v70,2013-01-13 00:08:00,
2013-01-12 19:13:00,41.3,39.1,30.23,ESE,102,1.0,8.0,92,0.00,,,0.00,Weather View 32 v70,2013-01-13 00:13:00,
2013-01-12 19:18:00,41.0,38.9,30.24,SSE,158,0.0,8.0,92,0.00,,,0.00,Weather View 32 v70,2013-01-13 00:18:00,
2013-01-12 19:23:00,41.3,39.1,30.23,ESE,107,1.0,6.0,92,0.00,,,0.00,Weather View 32 v70,2013-01-13 00:23:00,
2013-01-12 19:28:00,40.6,38.5,30.24,ESE,123,2.0,6.0,92,0.00,,,0.00,Weather View 32 v70,2013-01-13 00:28:00,
2013-01-12 19:33:00,40.8,38.7,30.23,SE,137,2.0,5.0,92,0.00,,,0.00,Weather View 32 v70,2013-01-13 00:33:00,
2013-01-12 19:38:00,41.1,39.0,30.23,SSE,163,2.0,5.0,92,0.00,,,0.00,Weather View 32 v70,2013-01-13 00:38:00,
2013-01-12 19:43:00,40.8,38.9,30.23,ESE,122,4.0,5.0,93,0.00,,,0.00,Weather View 32 v70,2013-01-13 00:43:00,
2013-01-12 19:48:00,41.0,38.9,30.23,ESE,118,1.0,5.0,92,0.00,,,0.00,Weather View 32 v70,2013-01-13 00:48:00,
2013-01-12 19:53:00,40.8,38.9,30.23,SE,131,2.0,4.0,93,0.00,,,0.00,Weather View 32 v70,2013-01-13 00:53:00,
2013-01-12 19:58:00,40.4,38.3,30.24,NE,54,1.0,4.0,92,0.00,,,0.00,Weather View 32 v70,2013-01-13 00:58:00,
2013-01-12 20:03:00,40.4,38.5,30.24,SE,130,4.0,4.0,93,0.00,,,0.00,Weather View 32 v70,2013-01-13 01:03:00,
2013-01-12 20:08:00,40.2,38.3,30.24,East,94,2.0,5.0,93,0.00,,,0.00,Weather View 32 v70,2013-01-13 01:08:00,
2013-01-12 20:13:00,40.2,38.3,30.24,SE,142,2.0,5.0,93,0.00,,,0.00,Weather View 32 v70,2013-01-13 01:13:00,
2013-01-12 20:18:00,40.2,38.3,30.24,South,173,0.0,5.0,93,0.00,,,0.00,Weather View 32 v70,2013-01-13 01:18:00,
2013-01-12 20:23:00,40.1,38.2,30.23,ESE,120,3.0,5.0,93,0.00,,,0.00,Weather View 32 v70,2013-01-13 01:23:00,
2013-01-12 20:28:00,40.1,38.2,30.23,SE,130,3.0,5.0,93,0.00,,,0.00,Weather View 32 v70,2013-01-13 01:28:00,
2013-01-12 20:33:00,39.9,38.0,30.23,ESE,112,2.0,5.0,93,0.00,,,0.00,Weather View 32 v70,2013-01-13 01:33:00,
2013-01-12 20:38:00,39.9,38.0,30.23,SE,129,3.0,5.0,93,0.00,,,0.00,Weather View 32 v70,2013-01-13 01:38:00,
2013-01-12 20:43:00,39.7,37.8,30.22,South,171,2.0,6.0,93,0.00,,,0.00,Weather View 32 v70,2013-01-13 01:43:00,
2013-01-12 20:49:00,39.5,37.6,30.23,South,171,2.0,6.0,93,0.00,,,0.00,Weather View 32 v70,2013-01-13 01:49:00,
2013-01-12 20:54:00,39.5,37.6,30.23,SE,144,2.0,6.0,93,0.00,,,0.00,Weather View 32 v70,2013-01-13 01:54:00,
2013-01-12 20:59:00,39.9,38.0,30.22,SE,144,2.0,6.0,93,0.00,,,0.00,Weather View 32 v70,2013-01-13 01:59:00,
2013-01-12 21:04:00,39.7,37.8,30.22,SE,140,2.0,6.0,93,0.00,,,0.00,Weather View 32 v70,2013-01-13 02:04:00,
2013-01-12 21:09:00,39.5,37.6,30.22,South,190,1.0,6.0,93,0.00,,,0.00,Weather View 32 v70,2013-01-13 02:09:00,
2013-01-12 21:14:00,39.3,37.4,30.23,SSE,160,0.0,6.0,93,0.00,,,0.00,Weather View 32 v70,2013-01-13 02:14:00,
2013-01-12 21:19:00,39.5,37.6,30.23,SSE,154,4.0,6.0,93,0.00,,,0.00,Weather View 32 v70,2013-01-13 02:19:00,
2013-01-12 21:24:00,39.5,37.6,30.23,East,92,3.0,6.0,93,0.00,,,0.00,Weather View 32 v70,2013-01-13 02:24:00,
2013-01-12 21:29:00,39.2,37.3,30.24,ENE,78,1.0,6.0,93,0.00,,,0.00,Weather View 32 v70,2013-01-13 02:29:00,
2013-01-12 21:34:00,39.3,37.4,30.24,ENE,71,0.0,6.0,93,0.00,,,0.00,Weather View 32 v70,2013-01-13 02:34:00,
2013-01-12 21:39:00,39.3,37.4,30.25,SSE,148,1.0,6.0,93,0.00,,,0.00,Weather View 32 v70,2013-01-13 02:39:00,
2013-01-12 21:44:00,39.3,37.4,30.23,South,176,3.0,6.0,93,0.00,,,0.00,Weather View 32 v70,2013-01-13 02:44:00,
2013-01-12 21:49:00,39.2,37.3,30.24,SE,132,3.0,6.0,93,0.00,,,0.00,Weather View 32 v70,2013-01-13 02:49:00,
2013-01-12 21:54:00,39.3,37.4,30.23,SE,138,2.0,6.0,93,0.00,,,0.00,Weather View 32 v70,2013-01-13 02:54:00,
2013-01-12 21:59:00,39.2,37.3,30.23,ESE,115,2.0,6.0,93,0.00,,,0.00,Weather View 32 v70,2013-01-13 02:59:00,
2013-01-12 22:04:00,39.2,37.3,30.23,SE,128,2.0,6.0,93,0.00,,,0.00,Weather View 32 v70,2013-01-13 03:04:00,
2013-01-12 22:09:00,38.6,36.7,30.24,SSE,161,2.0,4.0,93,0.00,,,0.00,Weather View 32 v70,2013-01-13 03:09:00,
2013-01-12 22:14:00,39.0,37.1,30.24,SE,146,3.0,4.0,93,0.00,,,0.00,Weather View 32 v70,2013-01-13 03:14:00,
2013-01-12 22:19:00,39.0,37.1,30.24,SSW,202,1.0,4.0,93,0.00,,,0.00,Weather View 32 v70,2013-01-13 03:19:00,
2013-01-12 22:24:00,38.8,36.9,30.25,SSE,153,3.0,4.0,93,0.00,,,0.00,Weather View 32 v70,2013-01-13 03:24:00,
2013-01-12 22:29:00,39.0,37.1,30.25,SE,145,2.0,4.0,93,0.00,,,0.00,Weather View 32 v70,2013-01-13 03:29:00,
2013-01-12 22:34:00,39.3,37.4,30.25,South,171,1.0,4.0,93,0.00,,,0.00,Weather View 32 v70,2013-01-13 03:34:00,
2013-01-12 22:39:00,38.8,36.9,30.25,SSE,154,1.0,4.0,93,0.00,,,0.00,Weather View 32 v70,2013-01-13 03:39:00,
2013-01-12 22:44:00,38.4,36.6,30.26,South,179,2.0,4.0,93,0.00,,,0.00,Weather View 32 v70,2013-01-13 03:44:00,
2013-01-12 22:49:00,38.6,36.7,30.25,SW,220,0.0,4.0,93,0.00,,,0.00,Weather View 32 v70,2013-01-13 03:49:00,
2013-01-12 22:54:00,38.6,36.7,30.26,SE,143,2.0,4.0,93,0.00,,,0.00,Weather View 32 v70,2013-01-13 03:54:00,
2013-01-12 22:59:00,38.6,36.7,30.25,ESE,105,1.0,4.0,93,0.00,,,0.00,Weather View 32 v70,2013-01-13 03:59:00,
2013-01-12 23:04:00,38.6,36.7,30.25,ESE,119,2.0,4.0,93,0.00,,,0.00,Weather View 32 v70,2013-01-13 04:04:00,
2013-01-12 23:09:00,38.4,36.6,30.24,SE,139,3.0,4.0,93,0.00,,,0.00,Weather View 32 v70,2013-01-13 04:09:00,
2013-01-12 23:14:00,38.4,36.6,30.24,SSE,150,3.0,4.0,93,0.00,,,0.00,Weather View 32 v70,2013-01-13 04:14:00,
2013-01-12 23:19:00,38.8,36.9,30.25,SSE,167,0.0,4.0,93,0.00,,,0.00,Weather View 32 v70,2013-01-13 04:19:00,
2013-01-12 23:24:00,38.3,36.5,30.25,SE,139,0.0,4.0,93,0.00,,,0.00,Weather View 32 v70,2013-01-13 04:24:00,
2013-01-12 23:29:00,38.3,36.5,30.24,SSE,154,2.0,4.0,93,0.00,,,0.00,Weather View 32 v70,2013-01-13 04:29:00,
2013-01-12 23:34:00,38.3,36.5,30.24,ESE,119,1.0,4.0,93,0.00,,,0.00,Weather View 32 v70,2013-01-13 04:34:00,
2013-01-12 23:39:00,37.9,36.1,30.23,SE,133,3.0,5.0,93,0.00,,,0.00,Weather View 32 v70,2013-01-13 04:39:00,
2013-01-12 23:44:00,37.9,36.1,30.23,SE,126,3.0,5.0,93,0.00,,,0.00,Weather View 32 v70,2013-01-13 04:44:00,
2013-01-12 23:49:00,37.7,35.9,30.24,SSE,152,3.0,5.0,93,0.00,,,0.00,Weather View 32 v70,2013-01-13 04:49:00,
2013-01-12 23:54:00,37.7,35.9,30.24,South,173,1.0,5.0,93,0.00,,,0.00,Weather View 32 v70,2013-01-13 04:54:00,
2013-01-12 23:59:00,37.5,35.7,30.25,SSE,168,1.0,5.0,93,0.00,,,0.00,Weather View 32 v70,2013-01-13 04:59:00,